createdAt,value
2022-09-07T00:00:16.616Z,100261.28
2022-09-07T00:02:44.463Z,100272.13
2022-09-07T00:05:12.315Z,100281.06
2022-09-07T00:07:40.027Z,100276.38
2022-09-07T00:10:09.071Z,100285.72
2022-09-07T00:12:38.436Z,100293.09
2022-09-07T00:15:09.375Z,100296.72
2022-09-07T00:17:37.912Z,100307.16
2022-09-07T00:20:08.530Z,100303.41
2022-09-07T00:22:36.817Z,100299.53
2022-09-07T00:25:05.239Z,100301.75
2022-09-07T00:27:33.271Z,100297.28
2022-09-07T00:30:02.438Z,100291.75
2022-09-07T00:32:30.180Z,100295.25
2022-09-07T00:35:00.363Z,100286.03
2022-09-07T00:37:28.055Z,100280.91
2022-09-07T00:39:55.860Z,100270.66
2022-09-07T00:42:24.012Z,100269.59
2022-09-07T00:45:06.352Z,100272.31
2022-09-07T00:47:40.189Z,100234.78
2022-09-07T00:50:15.104Z,100199.97
2022-09-07T00:52:46.409Z,100189.41
2022-09-07T00:55:16.198Z,100193.56
2022-09-07T00:57:49.232Z,100200.69
2022-09-07T01:00:18.346Z,100209.38
2022-09-07T01:02:48.044Z,100237.50
2022-09-07T01:05:22.602Z,100255.72
2022-09-07T01:07:50.337Z,100250.09
2022-09-07T01:10:19.074Z,100256.47
2022-09-07T01:12:46.973Z,100264.81
2022-09-07T01:15:14.760Z,100270.94
2022-09-07T01:17:58.245Z,100253.16
2022-09-07T01:20:50.561Z,100254.81
2022-09-07T01:23:43.753Z,100256.69
2022-09-07T01:26:54.562Z,100242.97
2022-09-07T01:29:32.517Z,100243.44
2022-09-07T01:32:11.259Z,100261.13
2022-09-07T01:34:39.461Z,100287.91
2022-09-07T01:37:17.568Z,100322.47
2022-09-07T01:39:52.610Z,100383.78
2022-09-07T01:42:25.556Z,100446.69
2022-09-07T01:44:57.347Z,100493.78
2022-09-07T01:47:31.695Z,100436.72
2022-09-07T01:50:03.828Z,100415.13
2022-09-07T01:52:39.229Z,100417.06
2022-09-07T01:55:14.676Z,100410.63
2022-09-07T01:57:46.964Z,100405.13
2022-09-07T02:00:20.026Z,100386.28
2022-09-07T02:02:52.526Z,100378.13
2022-09-07T02:05:24.945Z,100377.22
2022-09-07T02:07:57.247Z,100367.56
2022-09-07T02:10:30.979Z,100354.81
2022-09-07T02:13:02.814Z,100339.38
2022-09-07T02:15:41.371Z,100327.97
2022-09-07T02:18:11.609Z,100319.69
2022-09-07T02:20:41.666Z,100308.41
2022-09-07T02:23:15.199Z,100296.25
2022-09-07T02:25:47.429Z,100275.75
2022-09-07T02:28:18.681Z,100260.09
2022-09-07T02:30:47.819Z,100269.81
2022-09-07T02:33:16.001Z,100271.03
2022-09-07T02:35:43.717Z,100277.69
2022-09-07T02:38:11.452Z,100293.47
2022-09-07T02:40:40.076Z,100292.44
2022-09-07T02:43:10.285Z,100285.63
2022-09-07T02:45:48.026Z,100272.97
2022-09-07T02:48:30.782Z,100270.28
2022-09-07T02:51:09.971Z,100268.19
2022-09-07T02:54:17.935Z,100258.22
2022-09-07T02:56:58.534Z,100257.06
2022-09-07T02:59:41.011Z,100258.53
2022-09-07T03:02:14.462Z,100261.72
2022-09-07T03:04:51.239Z,100257.69
2022-09-07T03:07:23.432Z,100261.34
2022-09-07T03:09:54.986Z,100261.88
2022-09-07T03:12:22.838Z,100272.47
2022-09-07T03:14:50.824Z,100272.06
2022-09-07T03:17:18.637Z,100269.06
2022-09-07T03:19:47.716Z,100270.75
2022-09-07T03:22:15.791Z,100275.28
2022-09-07T03:24:43.503Z,100265.19
2022-09-07T03:27:11.482Z,100255.56
2022-09-07T03:29:42.030Z,100252.66
2022-09-07T03:32:09.966Z,100258.56
2022-09-07T03:34:37.703Z,100265.75
2022-09-07T03:37:06.953Z,100275.22
2022-09-07T03:39:36.341Z,100277.09
2022-09-07T03:42:04.383Z,100279.59
2022-09-07T03:44:32.325Z,100274.06
2022-09-07T03:47:00.022Z,100278.97
2022-09-07T03:49:27.753Z,100276.19
2022-09-07T03:51:55.579Z,100275.97
2022-09-07T03:54:24.863Z,100274.25
2022-09-07T03:56:52.700Z,100274.63
2022-09-07T03:59:20.498Z,100272.38
2022-09-07T04:01:48.292Z,100268.09
2022-09-07T04:04:16.072Z,100265.63
2022-09-07T04:06:43.896Z,100264.56
2022-09-07T04:09:14.485Z,100246.06
2022-09-07T04:11:43.862Z,100258.97
2022-09-07T04:14:12.452Z,100264.66
2022-09-07T04:16:40.339Z,100271.16
2022-09-07T04:19:08.146Z,100268.69
2022-09-07T04:21:35.961Z,100270.94
2022-09-07T04:24:04.268Z,100270.75
2022-09-07T04:26:34.149Z,100270.34
2022-09-07T04:29:04.037Z,100270.34
2022-09-07T04:31:33.998Z,100273.69
2022-09-07T04:34:02.103Z,100269.59
2022-09-07T04:36:29.986Z,100278.13
2022-09-07T04:38:59.455Z,100276.25
2022-09-07T04:41:28.276Z,100268.81
2022-09-07T04:43:57.770Z,100278.03
2022-09-07T04:46:29.729Z,100273.44
2022-09-07T04:48:59.536Z,100285.13
2022-09-07T04:51:29.675Z,100278.09
2022-09-07T04:53:59.504Z,100278.16
2022-09-07T04:56:27.539Z,100278.72
2022-09-07T04:58:55.295Z,100290.19
2022-09-07T05:01:26.403Z,100284.44
2022-09-07T05:03:54.229Z,100282.03
2022-09-07T05:06:23.492Z,100272.72
2022-09-07T05:08:54.163Z,100270.84
2022-09-07T05:11:28.511Z,100281.47
2022-09-07T05:13:57.489Z,100270.91
2022-09-07T05:16:27.348Z,100283.75
2022-09-07T05:18:57.054Z,100288.53
2022-09-07T05:21:26.995Z,100278.34
2022-09-07T05:23:56.377Z,100293.06
2022-09-07T05:26:27.758Z,100292.44
2022-09-07T05:31:45.354Z,100294.53
2022-09-07T05:36:56.690Z,100311.91
2022-09-07T05:39:24.967Z,100309.44
2022-09-07T05:41:52.861Z,100312.94
2022-09-07T05:47:10.173Z,100320.56
2022-09-07T05:49:37.927Z,100319.47
2022-09-07T05:52:05.794Z,100321.13
2022-09-07T05:54:33.474Z,100329.63
2022-09-07T05:57:03.098Z,100330.44
2022-09-07T05:59:30.896Z,100332.06
2022-09-07T06:01:58.789Z,100329.81
2022-09-07T06:04:28.000Z,100331.22
2022-09-07T06:07:21.549Z,100334.59
2022-09-07T06:12:31.221Z,100334.19
2022-09-07T06:15:00.953Z,100339.09
2022-09-07T06:17:29.798Z,100340.13
2022-09-07T06:20:00.191Z,100343.19
2022-09-07T06:22:31.007Z,100339.03
2022-09-07T06:24:59.191Z,100344.63
2022-09-07T06:27:26.925Z,100347.72
2022-09-07T06:29:54.908Z,100341.44
2022-09-07T06:35:12.762Z,100335.63
2022-09-07T06:37:40.990Z,100347.19
2022-09-07T06:40:10.584Z,100341.47
2022-09-07T06:42:38.528Z,100340.84
2022-09-07T06:45:07.491Z,100337.41
2022-09-07T06:47:35.222Z,100338.75
2022-09-07T06:50:03.010Z,100339.31
2022-09-07T06:55:20.251Z,100329.44
2022-09-07T06:57:47.981Z,100327.91
2022-09-07T07:00:16.395Z,100345.75
2022-09-07T07:02:44.254Z,100345.09
2022-09-07T07:05:12.228Z,100352.06
2022-09-07T07:07:41.253Z,100341.41
2022-09-07T07:10:10.005Z,100346.78
2022-09-07T07:15:04.506Z,100338.31
2022-09-07T07:17:32.242Z,100347.84
2022-09-07T07:19:59.966Z,100352.31
2022-09-07T07:22:46.200Z,100350.78
2022-09-07T07:25:16.470Z,100352.31
2022-09-07T07:27:47.127Z,100348.47
2022-09-07T07:30:15.327Z,100348.03
2022-09-07T07:32:43.928Z,100356.25
2022-09-07T07:35:12.091Z,100362.06
2022-09-07T07:37:40.234Z,100353.34
2022-09-07T07:42:43.186Z,100353.97
2022-09-07T07:47:59.827Z,100359.53
2022-09-07T07:50:31.640Z,100360.75
2022-09-07T07:55:48.224Z,100365.91
2022-09-07T07:58:17.618Z,100366.06
2022-09-07T08:01:00.706Z,100375.25
2022-09-07T08:03:28.785Z,100375.13
2022-09-07T08:05:57.115Z,100369.84
2022-09-07T08:08:25.236Z,100374.59
2022-09-07T08:10:53.323Z,100373.66
2022-09-07T08:13:22.428Z,100377.06
2022-09-07T08:15:50.211Z,100377.19
2022-09-07T08:18:18.651Z,100374.69
2022-09-07T08:20:46.761Z,100375.72
2022-09-07T08:23:15.359Z,100392.41
2022-09-07T08:25:51.403Z,100377.28
2022-09-07T08:28:19.493Z,100389.50
2022-09-07T08:30:48.808Z,100396.13
2022-09-07T08:33:17.144Z,100397.00
2022-09-07T08:35:54.462Z,100399.72
2022-09-07T08:38:22.101Z,100395.06
2022-09-07T08:40:50.314Z,100399.41
2022-09-07T08:43:30.053Z,100407.75
2022-09-07T08:46:05.651Z,100405.41
2022-09-07T08:48:35.174Z,100405.63
2022-09-07T08:51:10.470Z,100408.13
2022-09-07T08:53:44.848Z,100410.28
2022-09-07T08:56:19.087Z,100405.47
2022-09-07T08:58:50.409Z,100398.75
2022-09-07T09:01:37.442Z,100406.25
2022-09-07T09:04:16.757Z,100407.72
2022-09-07T09:06:54.788Z,100410.69
2022-09-07T09:09:35.018Z,100411.63
2022-09-07T09:12:14.252Z,100410.16
2022-09-07T09:14:58.884Z,100417.97
2022-09-07T09:17:33.843Z,100408.91
2022-09-07T09:20:09.219Z,100412.44
2022-09-07T09:22:36.893Z,100408.75
2022-09-07T09:25:19.752Z,100407.16
2022-09-07T09:27:47.697Z,100407.63
2022-09-07T09:30:17.262Z,100407.06
2022-09-07T09:32:47.774Z,100404.63
2022-09-07T09:35:20.655Z,100401.47
2022-09-07T09:37:48.385Z,100401.19
2022-09-07T09:40:25.339Z,100396.84
2022-09-07T09:43:07.581Z,100386.38
2022-09-07T09:48:33.417Z,100382.31
2022-09-07T09:54:01.263Z,100386.53
2022-09-07T09:56:43.672Z,100383.47
2022-09-07T10:05:28.430Z,100372.22
2022-09-07T10:07:56.851Z,100363.00
2022-09-07T10:10:25.969Z,100365.72
2022-09-07T10:12:55.160Z,100362.78
2022-09-07T10:15:29.756Z,100363.91
2022-09-07T10:17:59.264Z,100358.22
2022-09-07T10:20:38.963Z,100349.56
2022-09-07T10:23:20.335Z,100343.97
2022-09-07T10:25:48.564Z,100347.56
2022-09-07T10:28:20.292Z,100344.31
2022-09-07T10:31:09.877Z,100335.06
2022-09-07T10:36:45.152Z,100339.69
2022-09-07T10:39:16.205Z,100333.09
2022-09-07T10:41:52.657Z,100322.19
2022-09-07T10:44:29.242Z,100330.97
2022-09-07T10:47:02.735Z,100329.28
2022-09-07T10:49:40.206Z,100335.44
2022-09-07T10:52:22.357Z,100335.44
2022-09-07T10:54:55.105Z,100330.84
2022-09-07T10:57:44.549Z,100342.78
2022-09-07T11:00:18.086Z,100332.88
2022-09-07T11:06:15.351Z,100324.06
2022-09-07T11:09:16.347Z,100333.94
2022-09-07T11:12:04.355Z,100335.50
2022-09-07T11:14:38.386Z,100323.38
2022-09-07T11:17:13.399Z,100327.31
2022-09-07T11:19:47.143Z,100326.53
2022-09-07T11:22:20.946Z,100319.66
2022-09-07T11:27:48.516Z,100315.00
2022-09-07T11:30:24.620Z,100321.81
2022-09-07T11:33:06.766Z,100320.31
2022-09-07T11:35:46.146Z,100298.63
2022-09-07T11:38:26.594Z,100304.84
2022-09-07T11:41:07.469Z,100300.38
2022-09-07T11:43:41.360Z,100292.94
2022-09-07T11:46:14.204Z,100288.25
2022-09-07T11:48:46.611Z,100285.72
2022-09-07T11:51:20.885Z,100286.63
2022-09-07T11:53:52.386Z,100286.69
2022-09-07T11:56:27.894Z,100275.09
2022-09-07T11:59:30.761Z,100278.22
2022-09-07T12:02:15.888Z,100276.47
2022-09-07T12:04:56.897Z,100276.63
2022-09-07T12:07:47.284Z,100274.88
2022-09-07T12:10:30.708Z,100277.41
2022-09-07T12:13:28.731Z,100273.63
2022-09-07T12:16:03.685Z,100265.59
2022-09-07T12:18:50.066Z,100259.66
2022-09-07T12:21:39.897Z,100266.06
2022-09-07T12:24:35.545Z,100258.34
2022-09-07T12:27:04.468Z,100265.00
2022-09-07T12:29:33.885Z,100254.88
2022-09-07T12:34:54.564Z,100251.38
2022-09-07T12:37:45.931Z,100253.34
2022-09-07T12:40:56.055Z,100258.81
2022-09-07T12:43:47.806Z,100256.88
2022-09-07T12:46:41.394Z,100256.28
2022-09-07T12:49:30.471Z,100259.56
2022-09-07T12:52:15.378Z,100265.84
2022-09-07T12:55:10.021Z,100257.06
2022-09-07T12:57:46.531Z,100247.19
2022-09-07T13:00:36.197Z,100251.53
2022-09-07T13:03:58.871Z,100251.47
2022-09-07T13:09:32.119Z,100248.44
2022-09-07T13:12:00.969Z,100247.66
2022-09-07T13:14:30.208Z,100238.91
2022-09-07T13:17:49.932Z,100236.16
2022-09-07T13:20:30.057Z,100242.41
2022-09-07T13:23:09.140Z,100244.03
2022-09-07T13:25:47.347Z,100234.50
2022-09-07T13:28:23.606Z,100234.94
2022-09-07T13:31:11.434Z,100236.53
2022-09-07T13:33:50.478Z,100238.19
2022-09-07T13:36:43.230Z,100237.66
2022-09-07T13:39:15.189Z,100233.88
2022-09-07T13:41:47.326Z,100243.09
2022-09-07T13:44:25.870Z,100238.75
2022-09-07T13:47:21.065Z,100234.38
2022-09-07T13:50:02.845Z,100228.88
2022-09-07T13:52:49.376Z,100228.88
2022-09-07T13:55:32.687Z,100219.56
2022-09-07T13:58:13.641Z,100218.41
2022-09-07T14:00:52.371Z,100220.56
2022-09-07T14:03:21.034Z,100218.41
2022-09-07T14:06:06.524Z,100224.44
2022-09-07T14:08:39.667Z,100223.03
2022-09-07T14:11:18.448Z,100220.63
2022-09-07T14:13:46.023Z,100224.72
2022-09-07T14:16:13.928Z,100230.97
2022-09-07T14:18:41.782Z,100228.25
2022-09-07T14:21:19.054Z,100229.06
2022-09-07T14:23:51.165Z,100227.09
2022-09-07T14:26:22.390Z,100225.75
2022-09-07T14:28:52.544Z,100229.50
2022-09-07T14:31:22.104Z,100234.66
2022-09-07T14:33:52.828Z,100231.31
2022-09-07T14:36:43.941Z,100223.09
2022-09-07T14:39:16.322Z,100220.03
2022-09-07T14:41:45.036Z,100215.69
2022-09-07T14:44:30.251Z,100216.72
2022-09-07T14:47:00.350Z,100206.09
2022-09-07T14:49:32.124Z,100196.78
2022-09-07T14:52:00.791Z,100185.88
2022-09-07T14:54:32.558Z,100188.03
2022-09-07T14:57:04.286Z,100180.44
2022-09-07T14:59:40.844Z,100187.22
2022-09-07T15:02:25.394Z,100183.09
2022-09-07T15:05:16.345Z,100174.41
2022-09-07T15:07:48.147Z,100177.13
2022-09-07T15:10:28.741Z,100180.94
2022-09-07T15:12:58.446Z,100179.84
2022-09-07T15:15:29.017Z,100160.00
2022-09-07T15:18:03.106Z,100165.97
2022-09-07T15:20:36.534Z,100170.91
2022-09-07T15:23:06.181Z,100172.56
2022-09-07T15:25:36.456Z,100170.41
2022-09-07T15:28:04.609Z,100170.16
2022-09-07T15:30:33.577Z,100173.41
2022-09-07T15:33:01.473Z,100173.94
2022-09-07T15:35:29.150Z,100174.69
2022-09-07T15:38:05.436Z,100175.50
2022-09-07T15:41:18.264Z,100168.34
2022-09-07T15:43:39.044Z,100165.59
2022-09-07T15:46:07.245Z,100164.78
2022-09-07T15:48:36.339Z,100156.31
2022-09-07T15:52:04.808Z,100163.69
2022-09-07T15:57:48.301Z,100175.53
2022-09-07T15:59:32.427Z,100170.63
2022-09-07T16:02:00.388Z,100174.16
2022-09-07T16:04:28.534Z,100164.38
2022-09-07T16:06:56.298Z,100163.00
2022-09-07T16:09:24.153Z,100164.88
2022-09-07T16:11:54.048Z,100167.03
2022-09-07T16:14:21.755Z,100169.16
2022-09-07T16:19:40.970Z,100159.34
2022-09-07T16:22:09.648Z,100156.88
2022-09-07T16:24:37.587Z,100151.16
2022-09-07T16:27:06.838Z,100153.31
2022-09-07T16:29:34.546Z,100157.91
2022-09-07T16:34:49.847Z,100154.34
2022-09-07T16:37:18.413Z,100155.66
2022-09-07T16:39:46.055Z,100158.06
2022-09-07T16:42:16.291Z,100155.88
2022-09-07T16:44:43.899Z,100157.44
2022-09-07T16:47:12.758Z,100162.31
2022-09-07T16:49:40.424Z,100156.88
2022-09-07T16:52:10.585Z,100153.63
2022-09-07T16:54:38.509Z,100154.94
2022-09-07T16:57:06.231Z,100149.75
2022-09-07T16:59:35.203Z,100147.53
2022-09-07T17:02:02.929Z,100147.00
2022-09-07T17:04:30.613Z,100148.31
2022-09-07T17:06:58.300Z,100144.47
2022-09-07T17:09:26.673Z,100136.25
2022-09-07T17:11:54.505Z,100136.75
2022-09-07T17:14:22.187Z,100136.44
2022-09-07T17:16:51.410Z,100133.16
2022-09-07T17:19:36.231Z,100128.22
2022-09-07T17:22:04.244Z,100134.19
2022-09-07T17:24:32.445Z,100126.78
2022-09-07T17:27:00.247Z,100132.47
2022-09-07T17:29:30.373Z,100129.19
2022-09-07T17:34:47.303Z,100136.44
2022-09-07T17:37:14.945Z,100131.53
2022-09-07T17:39:42.746Z,100127.66
2022-09-07T17:42:10.542Z,100129.00
2022-09-07T17:44:38.606Z,100131.13
2022-09-07T17:47:07.975Z,100136.25
2022-09-07T17:49:35.686Z,100138.63
2022-09-07T17:52:03.912Z,100144.06
2022-09-07T17:54:32.823Z,100130.19
2022-09-07T17:57:00.799Z,100129.38
2022-09-07T18:02:17.371Z,100126.84
2022-09-07T18:04:45.068Z,100147.72
2022-09-07T18:07:12.929Z,100141.72
2022-09-07T18:09:40.583Z,100131.94
2022-09-07T18:12:08.511Z,100137.84
2022-09-07T18:14:36.201Z,100136.19
2022-09-07T18:17:06.010Z,100135.63
2022-09-07T18:19:36.410Z,100152.72
2022-09-07T18:22:04.121Z,100151.56
2022-09-07T18:24:31.827Z,100127.41
2022-09-07T18:26:59.604Z,100126.84
2022-09-07T18:29:31.116Z,100124.06
2022-09-07T18:32:01.449Z,100132.19
2022-09-07T18:34:30.658Z,100109.34
2022-09-07T18:36:59.986Z,100106.38
2022-09-07T18:39:27.974Z,100100.66
2022-09-07T18:41:56.116Z,100103.28
2022-09-07T18:47:21.455Z,100135.81
2022-09-07T18:49:51.822Z,100142.88
2022-09-07T18:55:10.406Z,100146.91
2022-09-07T18:57:38.631Z,100147.19
2022-09-07T19:00:08.923Z,100148.16
2022-09-07T19:02:36.999Z,100144.88
2022-09-07T19:07:54.341Z,100147.00
2022-09-07T19:10:21.959Z,100155.88
2022-09-07T19:12:49.516Z,100155.28
2022-09-07T19:15:17.141Z,100150.63
2022-09-07T19:17:44.867Z,100151.09
2022-09-07T19:20:12.619Z,100151.09
2022-09-07T19:22:40.254Z,100150.28
2022-09-07T19:25:10.231Z,100148.31
2022-09-07T19:27:37.950Z,100149.78
2022-09-07T19:30:06.108Z,100140.41
2022-09-07T19:32:33.886Z,100131.03
2022-09-07T19:35:01.562Z,100133.06
2022-09-07T19:37:31.868Z,100124.00
2022-09-07T19:39:59.735Z,100120.84
2022-09-07T19:42:29.581Z,100111.88
2022-09-07T19:44:57.185Z,100082.75
2022-09-07T19:47:24.897Z,100066.00
2022-09-07T19:49:52.737Z,100057.47
2022-09-07T19:52:20.581Z,100041.03
2022-09-07T19:54:48.253Z,100027.75
2022-09-07T19:57:15.858Z,100020.69
2022-09-07T19:59:45.594Z,100018.09
2022-09-07T20:02:13.379Z,100019.41
2022-09-07T20:04:40.967Z,100016.78
2022-09-07T20:07:08.611Z,100011.47
2022-09-07T20:09:36.850Z,100017.22
2022-09-07T20:12:06.642Z,100012.34
2022-09-07T20:14:34.357Z,100015.41
2022-09-07T20:17:03.650Z,100012.69
2022-09-07T20:19:31.244Z,100009.75
2022-09-07T20:21:59.026Z,100016.81
2022-09-07T20:24:27.078Z,100026.53
2022-09-07T20:26:54.681Z,100023.28
2022-09-07T20:29:29.571Z,100038.47
2022-09-07T20:31:58.323Z,100032.94
2022-09-07T20:34:28.156Z,100027.47
2022-09-07T20:36:56.699Z,100036.31
2022-09-07T20:39:24.333Z,100035.41
2022-09-07T20:41:51.993Z,100041.38
2022-09-07T20:44:19.603Z,100049.16
2022-09-07T20:46:47.495Z,100060.28
2022-09-07T20:49:15.188Z,100054.06
2022-09-07T20:51:44.105Z,100057.19
2022-09-07T20:54:11.740Z,100054.56
2022-09-07T20:56:39.332Z,100058.69
2022-09-07T20:59:06.926Z,100054.56
2022-09-07T21:01:35.098Z,100064.34
2022-09-07T21:04:03.914Z,100061.31
2022-09-07T21:06:32.891Z,100051.78
2022-09-07T21:09:02.644Z,100042.25
2022-09-07T21:11:33.056Z,100030.19
2022-09-07T21:14:02.319Z,100027.97
2022-09-07T21:16:30.910Z,100033.28
2022-09-07T21:19:00.158Z,100024.69
2022-09-07T21:21:29.463Z,100030.56
2022-09-07T21:23:59.187Z,100035.81
2022-09-07T21:26:29.170Z,100022.88
2022-09-07T21:28:57.954Z,100031.00
2022-09-07T21:31:25.771Z,100036.81
2022-09-07T21:33:55.601Z,100036.22
2022-09-07T21:36:23.687Z,100035.06
2022-09-07T21:38:51.885Z,100041.53
2022-09-07T21:41:20.878Z,100050.22
2022-09-07T21:43:49.952Z,100044.31
2022-09-07T21:46:19.652Z,100037.97
2022-09-07T21:48:47.615Z,100034.09
2022-09-07T21:51:16.177Z,100032.94
2022-09-07T21:53:44.452Z,100024.47
2022-09-07T21:56:14.489Z,100025.78
2022-09-07T21:58:43.640Z,100015.47
2022-09-07T22:01:16.754Z,100025.53
2022-09-07T22:03:45.375Z,100018.41
2022-09-07T22:06:13.374Z,100014.97
2022-09-07T22:08:42.110Z,100017.91
2022-09-07T22:11:11.916Z,100012.75
2022-09-07T22:13:40.383Z,100010.53
2022-09-07T22:16:09.055Z,99999.72
2022-09-07T22:18:40.170Z,99996.41
2022-09-07T22:21:09.511Z,99993.47
2022-09-07T22:23:40.164Z,99996.41
2022-09-07T22:26:08.765Z,99994.38
2022-09-07T22:28:37.024Z,99982.63
2022-09-07T22:31:12.837Z,99986.63
2022-09-07T22:33:42.640Z,99983.00
2022-09-07T22:36:12.518Z,99978.06
2022-09-07T22:38:40.203Z,99971.41
2022-09-07T22:41:09.246Z,99965.91
2022-09-07T22:43:37.268Z,99964.81
2022-09-07T22:46:05.630Z,99964.28
2022-09-07T22:48:33.390Z,99960.41
2022-09-07T22:51:03.461Z,99960.50
2022-09-07T22:53:34.511Z,99961.19
2022-09-07T22:56:06.990Z,99957.41
2022-09-07T22:58:35.051Z,99949.53
2022-09-07T23:01:02.649Z,99950.38
2022-09-07T23:03:31.588Z,99942.28
2022-09-07T23:06:00.542Z,99947.34
2022-09-07T23:08:30.241Z,99943.59
2022-09-07T23:11:04.952Z,99948.75
2022-09-07T23:13:33.016Z,99948.31
2022-09-07T23:16:05.606Z,99948.56
2022-09-07T23:18:34.108Z,99948.81
2022-09-07T23:21:02.221Z,99945.66
2022-09-07T23:23:31.350Z,99945.06
2022-09-07T23:26:02.320Z,99948.97
2022-09-07T23:28:30.420Z,99947.69
2022-09-07T23:30:58.433Z,99963.38
2022-09-07T23:33:27.173Z,99991.69
2022-09-07T23:35:59.959Z,100031.16
2022-09-07T23:38:28.243Z,100024.69
2022-09-07T23:40:58.467Z,100014.13
2022-09-07T23:43:27.818Z,100018.84
2022-09-07T23:45:55.552Z,100012.13
2022-09-07T23:48:23.813Z,100020.38
2022-09-07T23:50:53.032Z,100010.84
2022-09-07T23:53:22.017Z,100004.88
2022-09-07T23:55:51.518Z,99993.94
2022-09-07T23:58:22.277Z,99995.00
